Time;durP1;ratioP1;P1;durP2;ratioP2;P2;SDS_P1;SDS_P2;PMS_P1;PMS_P2;Temp;Humidity;BMP_temperature;BMP_pressure;BME280_temperature;BME280_humidity;BME280_pressure;Samples;Min_cycle;Max_cycle;Signal;HPM_P1;HPM_P2
2022/05/08 00:01:22;;;;;;;10.57;8.50;;;12.80;99.90;;;;;;5095373;28;20563;-49
2022/05/08 00:03:50;;;;;;;7.60;6.80;;;12.80;99.90;;;;;;5092518;28;20213;-50
2022/05/08 00:06:17;;;;;;;13.98;7.88;;;12.80;99.90;;;;;;5095517;28;20372;-50
2022/05/08 00:08:48;;;;;;;8.52;7.50;;;12.80;99.90;;;;;;5094492;28;20202;-50
2022/05/08 00:11:15;;;;;;;8.85;7.95;;;12.80;99.90;;;;;;5095831;28;20295;-49
2022/05/08 00:13:42;;;;;;;8.70;7.90;;;12.80;99.90;;;;;;5090661;28;20257;-51
2022/05/08 00:16:10;;;;;;;9.80;8.88;;;12.80;99.90;;;;;;5092696;28;20227;-50
2022/05/08 00:18:37;;;;;;;9.73;8.48;;;12.70;99.90;;;;;;5094293;28;20221;-51
2022/05/08 00:21:07;;;;;;;8.70;7.88;;;12.70;99.90;;;;;;5091680;28;20537;-50
2022/05/08 00:23:34;;;;;;;11.02;8.68;;;12.70;99.90;;;;;;5091495;28;20271;-49
2022/05/08 00:26:01;;;;;;;8.50;7.60;;;12.70;99.90;;;;;;5090949;28;20329;-50
2022/05/08 00:28:29;;;;;;;7.75;6.88;;;12.60;99.90;;;;;;5094261;28;20206;-49
2022/05/08 00:30:56;;;;;;;9.23;7.97;;;12.60;99.90;;;;;;5093329;28;20425;-49
2022/05/08 00:33:23;;;;;;;12.02;8.88;;;12.50;99.90;;;;;;5094760;28;20207;-49
2022/05/08 00:35:51;;;;;;;12.18;9.38;;;12.40;99.90;;;;;;5094112;28;20202;-49
2022/05/08 00:38:18;;;;;;;10.05;8.50;;;12.40;99.90;;;;;;5097355;28;20404;-50
2022/05/08 00:40:45;;;;;;;11.82;8.45;;;12.40;99.90;;;;;;5094045;28;20300;-52
2022/05/08 00:43:33;;;;;;;11.27;10.18;;;12.50;99.90;;;;;;5094304;28;20213;-50
2022/05/08 00:46:02;;;;;;;10.88;9.35;;;12.10;99.90;;;;;;5089261;28;20206;-49
2022/05/08 00:48:30;;;;;;;10.85;9.73;;;12.00;99.90;;;;;;5091283;28;20216;-50
2022/05/08 00:50:58;;;;;;;10.98;9.63;;;11.90;99.90;;;;;;5097168;28;20584;-49
2022/05/08 00:53:34;;;;;;;9.32;8.05;;;12.00;99.90;;;;;;5097241;28;20194;-49
2022/05/08 00:56:05;;;;;;;8.82;7.93;;;12.10;99.90;;;;;;5098619;28;20269;-51
2022/05/08 00:58:34;;;;;;;10.38;7.97;;;12.10;99.90;;;;;;5098207;28;20205;-50
2022/05/08 01:01:03;;;;;;;11.98;9.52;;;12.10;99.90;;;;;;5100573;28;20232;-51
2022/05/08 01:03:31;;;;;;;12.57;10.95;;;12.00;99.90;;;;;;5100004;28;20241;-54
2022/05/08 01:06:07;;;;;;;16.08;10.88;;;12.00;99.90;;;;;;5098506;28;20209;-50
2022/05/08 01:08:43;;;;;;;13.13;9.82;;;11.90;99.90;;;;;;5095796;28;20209;-49
2022/05/08 01:11:11;;;;;;;16.80;9.98;;;11.90;99.90;;;;;;5097601;28;20229;-49
2022/05/08 01:13:40;;;;;;;9.95;8.82;;;12.00;99.90;;;;;;5094415;28;20208;-50
2022/05/08 01:16:09;;;;;;;10.75;9.38;;;11.90;99.90;;;;;;5094992;28;20601;-52
2022/05/08 01:18:44;;;;;;;11.48;9.48;;;11.90;99.90;;;;;;5095996;28;20219;-50
2022/05/08 01:21:23;;;;;;;12.15;10.50;;;11.90;99.90;;;;;;5098099;28;20657;-50
2022/05/08 01:23:50;;;;;;;11.73;10.50;;;11.80;99.90;;;;;;5095191;28;20235;-50
2022/05/08 01:26:21;;;;;;;14.07;10.43;;;11.70;99.90;;;;;;5098593;28;20208;-50
2022/05/08 01:28:49;;;;;;;11.40;10.30;;;11.60;99.90;;;;;;5094071;28;20233;-51
2022/05/08 01:31:16;;;;;;;21.35;12.07;;;11.60;99.90;;;;;;5094185;28;20300;-51
2022/05/08 01:33:43;;;;;;;12.32;11.07;;;11.60;99.90;;;;;;5093822;28;20527;-50
2022/05/08 01:36:11;;;;;;;12.23;10.90;;;11.70;99.90;;;;;;5098442;28;20431;-50
2022/05/08 01:38:39;;;;;;;13.43;12.15;;;11.60;99.90;;;;;;5097052;28;20210;-49
2022/05/08 01:41:08;;;;;;;13.40;12.10;;;11.60;99.90;;;;;;5098472;28;20239;-49
2022/05/08 01:43:39;;;;;;;13.20;11.63;;;11.50;99.90;;;;;;5095531;28;20289;-50
2022/05/08 01:46:06;;;;;;;15.70;13.18;;;11.50;99.90;;;;;;5097561;28;20204;-50
2022/05/08 01:48:34;;;;;;;15.90;13.95;;;11.60;99.90;;;;;;5099766;28;20229;-51
2022/05/08 01:51:03;;;;;;;13.05;11.75;;;11.50;99.90;;;;;;5096733;28;20447;-50
2022/05/08 01:53:32;;;;;;;16.85;12.93;;;11.50;99.90;;;;;;5095179;28;20276;-50
2022/05/08 01:55:59;;;;;;;13.70;12.40;;;11.50;99.90;;;;;;5093590;28;20276;-49
2022/05/08 01:58:28;;;;;;;15.20;12.52;;;11.50;99.90;;;;;;5094214;28;20213;-51
2022/05/08 02:00:56;;;;;;;17.17;13.65;;;11.50;99.90;;;;;;5093063;28;20315;-51
2022/05/08 02:03:25;;;;;;;13.88;12.43;;;11.40;99.90;;;;;;5097428;28;20403;-50
2022/05/08 02:05:52;;;;;;;11.95;10.70;;;11.40;99.90;;;;;;5096600;28;20212;-49
2022/05/08 02:08:20;;;;;;;22.40;13.40;;;11.40;99.90;;;;;;5097564;28;20570;-49
2022/05/08 02:10:47;;;;;;;16.25;13.00;;;11.40;99.90;;;;;;5092346;28;20416;-49
2022/05/08 02:13:14;;;;;;;14.32;12.13;;;11.40;99.90;;;;;;5094788;28;20205;-50
2022/05/08 02:15:45;;;;;;;17.13;14.05;;;11.30;99.90;;;;;;5090818;28;20218;-50
2022/05/08 02:18:12;;;;;;;17.73;13.98;;;11.30;99.90;;;;;;5096161;28;20206;-51
2022/05/08 02:20:40;;;;;;;14.38;12.98;;;11.30;99.90;;;;;;5092809;28;20236;-49
2022/05/08 02:23:08;;;;;;;18.77;13.43;;;11.30;99.90;;;;;;5097306;28;20555;-49
2022/05/08 02:25:37;;;;;;;16.65;13.90;;;11.30;99.90;;;;;;5092702;28;20666;-51
2022/05/08 02:28:04;;;;;;;18.67;15.52;;;11.30;99.90;;;;;;5095952;28;20207;-49
2022/05/08 02:30:31;;;;;;;16.90;13.27;;;11.10;99.90;;;;;;5092170;28;20455;-49
2022/05/08 02:33:02;;;;;;;16.20;14.20;;;11.10;99.90;;;;;;5096185;28;20630;-49
2022/05/08 02:35:34;;;;;;;17.13;14.35;;;11.10;99.90;;;;;;5093089;28;20212;-48
2022/05/08 02:38:02;;;;;;;17.13;13.30;;;11.10;99.90;;;;;;5095205;28;20210;-50
2022/05/08 02:40:29;;;;;;;16.92;13.15;;;11.10;99.90;;;;;;5097111;28;20205;-50
2022/05/08 02:42:56;;;;;;;19.00;15.75;;;11.00;99.90;;;;;;5096270;28;20280;-50
2022/05/08 02:45:24;;;;;;;15.77;14.18;;;10.90;99.90;;;;;;5097842;28;20223;-50
2022/05/08 02:47:51;;;;;;;21.98;16.40;;;10.90;99.90;;;;;;5095963;28;20239;-49
2022/05/08 02:50:20;;;;;;;18.88;16.13;;;10.80;99.90;;;;;;5097360;28;20620;-50
2022/05/08 02:52:47;;;;;;;18.35;14.65;;;10.90;99.90;;;;;;5092987;28;20229;-51
2022/05/08 03:00:50;;;;;;;15.55;13.85;;;11.00;99.90;;;;;;5100079;28;20224;-50
2022/05/08 03:03:17;;;;;;;17.10;15.40;;;10.90;99.90;;;;;;5099056;28;20219;-49
2022/05/08 03:05:48;;;;;;;15.13;13.60;;;10.90;99.90;;;;;;5093772;28;20208;-51
2022/05/08 03:08:19;;;;;;;16.70;14.23;;;10.80;99.90;;;;;;5094169;28;20553;-49
2022/05/08 03:13:37;;;;;;;15.55;13.70;;;10.80;99.90;;;;;;5091958;28;20209;-52
2022/05/08 03:16:06;;;;;;;20.08;13.57;;;10.80;99.90;;;;;;5092048;28;20208;-50
2022/05/08 03:18:38;;;;;;;13.02;11.68;;;10.80;99.90;;;;;;5095596;28;20276;-50
2022/05/08 03:21:08;;;;;;;14.95;13.20;;;10.70;99.90;;;;;;5093713;28;20300;-50
2022/05/08 03:23:35;;;;;;;14.27;12.88;;;10.70;99.90;;;;;;5092548;28;20215;-51
2022/05/08 03:26:06;;;;;;;13.65;12.25;;;10.60;99.90;;;;;;5095915;28;20686;-49
2022/05/08 03:28:39;;;;;;;14.63;12.80;;;10.60;99.90;;;;;;5095045;28;20434;-50
2022/05/08 03:31:08;;;;;;;15.27;12.82;;;10.70;99.90;;;;;;5096454;28;20392;-49
2022/05/08 03:33:39;;;;;;;15.35;13.77;;;10.90;99.90;;;;;;5096169;28;20507;-52
2022/05/08 03:36:10;;;;;;;13.27;12.00;;;11.00;99.90;;;;;;5095727;28;20340;-49
2022/05/08 03:38:45;;;;;;;15.23;12.65;;;11.10;99.90;;;;;;5089835;28;20304;-49
2022/05/08 03:41:15;;;;;;;13.32;11.63;;;11.10;99.90;;;;;;5096470;28;20223;-50
2022/05/08 03:43:46;;;;;;;18.25;13.60;;;11.20;99.90;;;;;;5095429;28;20205;-49
2022/05/08 03:46:14;;;;;;;14.63;13.23;;;11.30;99.90;;;;;;5096567;28;20589;-50
2022/05/08 03:48:42;;;;;;;16.83;13.98;;;11.30;99.90;;;;;;5092430;28;20205;-50
2022/05/08 03:51:10;;;;;;;15.45;13.65;;;11.50;99.90;;;;;;5095751;28;20217;-49
2022/05/08 03:53:37;;;;;;;20.10;14.32;;;11.50;99.90;;;;;;5094849;28;20523;-52
2022/05/08 03:56:04;;;;;;;14.07;11.75;;;11.60;99.90;;;;;;5092929;28;20202;-52
2022/05/08 03:58:32;;;;;;;14.25;12.65;;;11.70;99.90;;;;;;5095353;28;20563;-52
2022/05/08 04:00:59;;;;;;;14.05;12.57;;;11.90;99.90;;;;;;5091957;28;20620;-49
2022/05/08 04:03:26;;;;;;;12.13;10.90;;;11.90;99.90;;;;;;5095696;28;20224;-49
2022/05/08 04:05:54;;;;;;;13.38;12.10;;;12.00;99.90;;;;;;5094900;28;20236;-53
2022/05/08 04:08:21;;;;;;;13.82;12.43;;;12.20;99.90;;;;;;5092293;28;20221;-52
2022/05/08 04:10:48;;;;;;;15.48;11.55;;;12.10;99.90;;;;;;5096042;28;20500;-48
2022/05/08 04:13:15;;;;;;;14.57;11.30;;;12.10;99.90;;;;;;5092852;28;20233;-51
2022/05/08 04:18:29;;;;;;;17.73;13.48;;;12.30;99.90;;;;;;5095575;28;20487;-50
2022/05/08 04:20:59;;;;;;;13.57;11.80;;;12.50;99.90;;;;;;5094718;28;20619;-52
2022/05/08 04:26:12;;;;;;;13.02;10.50;;;12.90;99.90;;;;;;5097560;28;20205;-51
2022/05/08 04:28:39;;;;;;;13.20;10.80;;;13.00;99.90;;;;;;5098792;28;20475;-49
2022/05/08 04:31:06;;;;;;;11.30;10.10;;;13.10;99.90;;;;;;5096934;28;20226;-51
2022/05/08 04:33:33;;;;;;;14.07;10.20;;;13.00;99.90;;;;;;5099250;28;20229;-50
2022/05/08 04:36:01;;;;;;;15.23;11.68;;;13.10;99.90;;;;;;5093234;28;20385;-50
2022/05/08 04:38:28;;;;;;;11.25;9.45;;;13.10;99.90;;;;;;5097499;28;20205;-49
2022/05/08 04:40:55;;;;;;;16.83;10.82;;;13.30;99.90;;;;;;5093469;28;20232;-51
2022/05/08 04:43:22;;;;;;;10.70;9.65;;;13.30;99.90;;;;;;5099374;28;20218;-50
2022/05/08 04:45:50;;;;;;;10.77;9.68;;;13.40;99.90;;;;;;5103932;28;20300;-50
2022/05/08 04:48:17;;;;;;;16.42;11.35;;;13.50;99.90;;;;;;5099552;28;20207;-50
2022/05/08 04:50:44;;;;;;;11.20;10.05;;;13.60;99.90;;;;;;5098648;28;20236;-51
2022/05/08 04:53:12;;;;;;;10.52;8.90;;;13.60;99.90;;;;;;5098598;28;20226;-50
2022/05/08 04:55:39;;;;;;;10.05;9.05;;;13.80;99.90;;;;;;5098534;28;20358;-51
2022/05/08 04:58:06;;;;;;;12.25;10.30;;;13.90;99.90;;;;;;5098102;28;20233;-49
2022/05/08 05:00:34;;;;;;;9.73;8.63;;;14.00;99.90;;;;;;5096346;28;20227;-50
2022/05/08 05:03:02;;;;;;;9.20;8.30;;;14.00;99.90;;;;;;5099852;28;20260;-50
2022/05/08 05:05:29;;;;;;;13.40;7.85;;;14.10;99.90;;;;;;5099925;28;20213;-49
2022/05/08 05:07:56;;;;;;;8.68;7.97;;;14.20;99.90;;;;;;5100205;28;20215;-51
2022/05/08 05:10:26;;;;;;;9.55;8.52;;;14.40;99.90;;;;;;5099343;28;20237;-52
2022/05/08 05:12:57;;;;;;;10.88;9.63;;;14.40;99.90;;;;;;5097509;28;20222;-49
2022/05/08 05:15:24;;;;;;;9.15;7.60;;;14.50;99.90;;;;;;5095755;28;20213;-51
2022/05/08 05:17:52;;;;;;;11.02;8.35;;;14.70;99.90;;;;;;5097268;28;20742;-51
2022/05/08 05:20:19;;;;;;;9.20;7.70;;;14.90;99.90;;;;;;5100056;28;20207;-51
2022/05/08 05:22:46;;;;;;;10.07;9.07;;;15.20;99.90;;;;;;5105686;28;20215;-51
2022/05/08 05:25:13;;;;;;;8.70;7.80;;;15.30;99.90;;;;;;5105226;28;20250;-51
2022/05/08 05:27:41;;;;;;;12.93;8.38;;;15.30;99.90;;;;;;5099578;28;20323;-50
2022/05/08 05:30:09;;;;;;;11.50;8.27;;;15.40;99.90;;;;;;5099843;28;20207;-52
2022/05/08 05:32:37;;;;;;;8.02;7.18;;;15.40;99.90;;;;;;5098675;28;20487;-50
2022/05/08 05:35:05;;;;;;;9.77;7.97;;;15.50;99.90;;;;;;5095119;28;20227;-50
2022/05/08 05:37:34;;;;;;;9.57;8.33;;;15.80;99.90;;;;;;5099018;28;20625;-52
2022/05/08 05:40:01;;;;;;;10.13;8.80;;;15.80;99.90;;;;;;5098337;28;20523;-51
2022/05/08 05:42:39;;;;;;;8.80;7.87;;;16.00;99.90;;;;;;5095287;28;20697;-50
2022/05/08 05:45:07;;;;;;;8.80;8.00;;;16.40;99.90;;;;;;5098543;28;20428;-49
2022/05/08 05:47:49;;;;;;;8.17;7.20;;;16.50;99.90;;;;;;5097924;28;20425;-49
2022/05/08 05:50:17;;;;;;;10.23;8.60;;;16.60;99.90;;;;;;5098814;28;20402;-51
2022/05/08 05:52:45;;;;;;;8.60;7.70;;;16.80;99.90;;;;;;5098985;28;20508;-52
2022/05/08 05:55:13;;;;;;;9.53;6.90;;;16.90;99.90;;;;;;5100222;28;20417;-50
2022/05/08 05:57:40;;;;;;;10.30;6.60;;;17.10;99.90;;;;;;5094105;28;20513;-52
2022/05/08 06:00:18;;;;;;;10.33;7.70;;;17.30;99.90;;;;;;5099055;28;20419;-50
2022/05/08 06:02:47;;;;;;;7.87;7.03;;;17.40;99.90;;;;;;5096700;28;20509;-51
2022/05/08 06:05:15;;;;;;;8.63;7.03;;;17.70;99.90;;;;;;5099211;28;20420;-50
2022/05/08 06:07:42;;;;;;;7.63;6.90;;;17.70;99.90;;;;;;5097635;28;20686;-50
2022/05/08 06:10:11;;;;;;;8.73;7.10;;;17.90;99.90;;;;;;5095346;28;20436;-50
2022/05/08 06:12:39;;;;;;;7.90;7.10;;;18.20;99.90;;;;;;5092901;28;20479;-50
2022/05/08 06:15:08;;;;;;;7.63;6.80;;;18.30;99.90;;;;;;5093890;28;20469;-51
2022/05/08 06:17:36;;;;;;;17.87;7.97;;;18.50;99.90;;;;;;5095886;28;20456;-53
2022/05/08 06:20:04;;;;;;;9.73;8.07;;;18.80;99.90;;;;;;5097678;28;20781;-52
2022/05/08 06:22:33;;;;;;;9.20;7.40;;;19.10;99.90;;;;;;5097263;28;20458;-51
2022/05/08 06:25:00;;;;;;;6.40;5.80;;;19.50;99.90;;;;;;5096769;28;20417;-52
2022/05/08 06:27:28;;;;;;;9.83;6.57;;;19.80;99.90;;;;;;5098379;28;20537;-51
2022/05/08 06:29:55;;;;;;;10.33;7.50;;;20.10;99.90;;;;;;5095886;28;20426;-53
2022/05/08 06:32:23;;;;;;;7.77;5.70;;;20.20;99.90;;;;;;5098093;28;20493;-51
2022/05/08 06:34:50;;;;;;;7.90;7.10;;;20.20;99.90;;;;;;5097934;28;20664;-50
2022/05/08 06:37:17;;;;;;;9.73;7.60;;;20.10;99.90;;;;;;5098773;28;20447;-50
2022/05/08 06:39:44;;;;;;;8.10;6.40;;;20.20;99.90;;;;;;5097246;28;20437;-54
2022/05/08 06:42:11;;;;;;;6.33;5.83;;;20.40;99.90;;;;;;5095536;28;20497;-53
2022/05/08 06:44:39;;;;;;;7.07;6.27;;;20.80;99.90;;;;;;5094243;28;20464;-50
2022/05/08 06:47:06;;;;;;;6.80;6.10;;;21.70;99.90;;;;;;5095069;28;20445;-53
2022/05/08 06:49:34;;;;;;;11.73;7.20;;;22.70;99.90;;;;;;5093838;28;20417;-53
2022/05/08 06:52:02;;;;;;;9.67;6.80;;;23.80;99.90;;;;;;5096029;28;20526;-50
2022/05/08 06:54:33;;;;;;;6.37;5.77;;;24.40;99.90;;;;;;5097186;27;20438;-53
2022/05/08 06:57:00;;;;;;;6.03;5.53;;;25.10;99.90;;;;;;5099835;28;20733;-53
2022/05/08 07:02:13;;;;;;;10.60;6.87;;;26.40;99.90;;;;;;5097961;28;20511;-50
2022/05/08 07:04:41;;;;;;;6.40;5.87;;;27.80;97.10;;;;;;5102476;28;20515;-52
2022/05/08 07:07:08;;;;;;;7.77;7.07;;;29.10;93.40;;;;;;5112025;28;20595;-53
2022/05/08 07:09:36;;;;;;;7.83;6.90;;;29.70;90.50;;;;;;5114773;28;20438;-50
2022/05/08 07:12:03;;;;;;;7.93;6.70;;;30.90;84.60;;;;;;5113784;28;20464;-50
2022/05/08 07:14:40;;;;;;;9.40;8.37;;;32.40;77.50;;;;;;5114377;28;20467;-50
2022/05/08 07:17:07;;;;;;;6.73;6.13;;;33.30;70.40;;;;;;5114764;28;20432;-50
2022/05/08 07:19:34;;;;;;;6.97;6.37;;;33.60;66.50;;;;;;5115625;28;20433;-50
2022/05/08 07:22:02;;;;;;;6.63;6.03;;;33.90;64.80;;;;;;5115275;28;20450;-49
2022/05/08 07:24:30;;;;;;;8.27;7.03;;;34.90;61.20;;;;;;5103698;28;20479;-53
2022/05/08 07:26:57;;;;;;;7.97;6.07;;;35.10;58.80;;;;;;5082522;28;20462;-53
2022/05/08 07:29:27;;;;;;;7.63;6.67;;;35.60;58.00;;;;;;5099066;28;20640;-49
2022/05/08 07:31:55;;;;;;;7.17;6.67;;;36.80;55.70;;;;;;5096742;28;20453;-52
2022/05/08 07:37:08;;;;;;;7.20;6.07;;;37.70;52.20;;;;;;5091832;28;20431;-52
2022/05/08 07:39:36;;;;;;;6.47;5.97;;;38.10;51.50;;;;;;5091880;28;20439;-52
2022/05/08 07:42:03;;;;;;;7.63;6.93;;;36.90;51.70;;;;;;5093028;28;20461;-49
2022/05/08 07:44:31;;;;;;;8.53;7.60;;;37.20;52.10;;;;;;5097064;28;20465;-54
2022/05/08 07:47:00;;;;;;;10.00;5.63;;;37.50;51.20;;;;;;5097459;28;20465;-50
2022/05/08 07:49:27;;;;;;;6.10;5.60;;;39.10;49.20;;;;;;5086530;28;20446;-52
2022/05/08 07:51:55;;;;;;;8.10;6.20;;;39.20;48.00;;;;;;5080500;28;20530;-53
2022/05/08 07:54:22;;;;;;;8.70;6.80;;;39.80;47.00;;;;;;5088177;28;20496;-51
2022/05/08 07:56:49;;;;;;;6.50;5.80;;;39.10;46.90;;;;;;5084252;28;20722;-53
2022/05/08 07:59:17;;;;;;;5.80;5.40;;;40.10;45.60;;;;;;5090308;28;20431;-53
2022/05/08 08:01:44;;;;;;;7.77;6.73;;;40.20;45.60;;;;;;5101465;28;20718;-53
2022/05/08 08:04:17;;;;;;;6.23;5.60;;;40.50;45.10;;;;;;5113284;28;20453;-51
2022/05/08 08:06:44;;;;;;;5.73;5.30;;;38.60;46.30;;;;;;5113876;28;20453;-52
2022/05/08 08:09:13;;;;;;;4.80;4.40;;;37.20;48.10;;;;;;5113555;28;20768;-51
2022/05/08 08:11:42;;;;;;;5.87;5.27;;;36.70;48.30;;;;;;5113754;28;20454;-52
2022/05/08 08:14:09;;;;;;;6.10;5.17;;;37.70;48.10;;;;;;5112617;28;20481;-50
2022/05/08 08:16:56;;;;;;;6.80;6.20;;;37.50;46.50;;;;;;5113410;28;20754;-56
2022/05/08 08:19:24;;;;;;;6.80;6.03;;;38.30;46.10;;;;;;5115382;28;20504;-52
2022/05/08 08:21:52;;;;;;;6.47;5.90;;;38.30;45.90;;;;;;5117906;28;20450;-52
2022/05/08 08:24:19;;;;;;;8.93;6.40;;;37.30;46.30;;;;;;5118198;28;20442;-53
2022/05/08 08:26:46;;;;;;;6.43;5.83;;;36.70;47.00;;;;;;5107225;28;20446;-53
2022/05/08 08:29:14;;;;;;;7.10;5.73;;;37.10;47.10;;;;;;5094416;28;20794;-51
2022/05/08 08:31:41;;;;;;;5.63;4.97;;;36.40;48.50;;;;;;5092794;28;20645;-51
2022/05/08 08:34:09;;;;;;;5.33;4.83;;;35.80;48.80;;;;;;5092700;28;20475;-51
2022/05/08 08:36:37;;;;;;;6.10;4.87;;;35.40;49.30;;;;;;5093168;28;20431;-51
2022/05/08 08:39:04;;;;;;;4.83;4.43;;;34.60;48.70;;;;;;5092681;28;20465;-50
2022/05/08 08:41:35;;;;;;;5.93;5.33;;;34.10;49.30;;;;;;5093262;28;20455;-49
2022/05/08 08:49:54;;;;;;;7.17;6.47;;;35.50;48.50;;;;;;5072470;28;20584;-50
2022/05/08 08:52:27;;;;;;;6.53;5.83;;;36.30;46.90;;;;;;5072833;28;20463;-51
2022/05/08 08:54:58;;;;;;;6.00;5.20;;;36.50;46.90;;;;;;5072072;28;20614;-50
2022/05/08 08:57:25;;;;;;;5.57;5.03;;;37.50;46.40;;;;;;5072795;28;20527;-51
2022/05/08 08:59:53;;;;;;;5.70;5.17;;;37.90;45.70;;;;;;5072185;28;20550;-51
2022/05/08 09:02:20;;;;;;;7.47;5.47;;;37.50;46.10;;;;;;5072735;28;20493;-51
2022/05/08 09:04:49;;;;;;;5.53;5.03;;;37.00;46.80;;;;;;5072072;28;20580;-50
2022/05/08 09:07:45;;;;;;;6.50;5.00;;;35.80;46.60;;;;;;5072592;28;20515;-52
2022/05/08 09:10:21;;;;;;;4.60;4.20;;;32.90;50.90;;;;;;5072793;28;20531;-51
2022/05/08 09:12:56;;;;;;;21.00;6.00;;;33.00;51.90;;;;;;5076172;28;20475;-52
2022/05/08 09:15:23;;;;;;;6.77;6.10;;;34.00;50.90;;;;;;5099103;28;20501;-51
2022/05/08 09:17:54;;;;;;;6.30;5.30;;;35.30;49.80;;;;;;5103989;28;20467;-50
2022/05/08 09:20:32;;;;;;;5.37;4.07;;;35.80;49.10;;;;;;5106065;28;20742;-50
2022/05/08 09:23:10;;;;;;;5.77;4.50;;;34.90;48.00;;;;;;5114082;28;20452;-49
2022/05/08 09:25:53;;;;;;;5.27;4.77;;;34.50;47.70;;;;;;5107048;28;20724;-51
2022/05/08 09:28:41;;;;;;;4.10;3.80;;;32.80;50.10;;;;;;5116075;27;20994;-50
2022/05/08 09:31:13;;;;;;;5.73;5.13;;;30.50;53.20;;;;;;5116366;28;20491;-49
2022/05/08 09:33:45;;;;;;;6.43;5.37;;;27.70;57.40;;;;;;5116280;28;20501;-51
2022/05/08 09:36:24;;;;;;;6.00;4.90;;;26.60;60.00;;;;;;5116750;28;20511;-51
2022/05/08 09:39:06;;;;;;;8.10;5.50;;;25.80;62.60;;;;;;5116489;28;20478;-50
2022/05/08 09:41:39;;;;;;;4.93;4.53;;;25.20;64.80;;;;;;5121431;28;20451;-49
2022/05/08 09:44:18;;;;;;;4.80;4.40;;;24.50;67.20;;;;;;5122105;28;20789;-50
2022/05/08 09:46:47;;;;;;;5.20;4.23;;;23.80;69.30;;;;;;5120610;28;20438;-54
2022/05/08 09:49:25;;;;;;;10.00;6.37;;;23.60;71.10;;;;;;5121908;28;20448;-49
2022/05/08 09:51:53;;;;;;;5.90;5.40;;;23.40;73.10;;;;;;5119868;28;20600;-51
2022/05/08 09:54:21;;;;;;;10.90;5.70;;;22.90;76.30;;;;;;5117610;28;20484;-50
2022/05/08 09:56:49;;;;;;;5.17;4.77;;;23.10;77.10;;;;;;5100931;28;20427;-53
2022/05/08 09:59:21;;;;;;;6.40;5.90;;;23.00;77.60;;;;;;5097754;28;20494;-51
2022/05/08 10:01:48;;;;;;;6.10;5.50;;;23.00;77.50;;;;;;5097447;28;20447;-51
2022/05/08 10:04:16;;;;;;;6.63;5.33;;;22.90;76.90;;;;;;5098030;28;20443;-51
2022/05/08 10:06:43;;;;;;;7.17;5.60;;;22.60;78.20;;;;;;5097451;28;20701;-49
2022/05/08 10:14:49;;;;;;;5.23;4.73;;;22.30;79.30;;;;;;5097238;28;20540;-49
2022/05/08 10:17:28;;;;;;;6.40;5.80;;;22.20;78.60;;;;;;5097461;28;20420;-52
2022/05/08 10:19:56;;;;;;;6.23;5.20;;;22.00;81.30;;;;;;5096258;28;20441;-49
2022/05/08 10:22:25;;;;;;;6.03;5.03;;;22.00;81.80;;;;;;5095966;28;20451;-52
2022/05/08 10:25:09;;;;;;;4.70;4.30;;;22.20;83.60;;;;;;5095994;28;20473;-51
2022/05/08 10:27:37;;;;;;;6.70;5.47;;;22.20;80.50;;;;;;5096553;28;20694;-52
2022/05/08 10:30:04;;;;;;;4.07;3.77;;;22.30;81.30;;;;;;5095955;28;20439;-50
2022/05/08 10:32:35;;;;;;;4.53;4.20;;;22.50;79.70;;;;;;5096904;28;20429;-52
2022/05/08 10:35:11;;;;;;;4.50;4.03;;;22.40;81.50;;;;;;5095973;28;20785;-50
2022/05/08 10:37:51;;;;;;;4.00;3.57;;;22.40;82.10;;;;;;5095873;28;20529;-51
2022/05/08 10:40:24;;;;;;;4.60;4.20;;;22.70;83.00;;;;;;5096468;28;20644;-50
2022/05/08 10:42:58;;;;;;;3.70;3.40;;;22.80;81.60;;;;;;5095983;28;20799;-51
2022/05/08 10:45:34;;;;;;;10.33;5.27;;;22.90;80.80;;;;;;5097769;28;20602;-50
2022/05/08 10:48:08;;;;;;;5.30;4.37;;;22.90;82.40;;;;;;5103905;28;20517;-51
2022/05/08 10:50:40;;;;;;;5.17;4.67;;;22.70;83.80;;;;;;5110301;28;20529;-49
2022/05/08 10:53:19;;;;;;;8.80;5.23;;;22.80;84.40;;;;;;5098197;28;20774;-49
2022/05/08 10:55:46;;;;;;;5.60;5.13;;;22.80;85.20;;;;;;5097000;28;20457;-52
2022/05/08 10:58:19;;;;;;;6.43;5.20;;;22.90;83.20;;;;;;5101250;28;20727;-50
2022/05/08 11:00:47;;;;;;;4.57;4.03;;;23.20;84.20;;;;;;5109968;28;20460;-52
2022/05/08 11:03:21;;;;;;;5.67;4.77;;;23.50;83.70;;;;;;5100347;28;20691;-53
2022/05/08 11:05:49;;;;;;;6.27;4.83;;;23.10;82.60;;;;;;5110900;28;20443;-49
2022/05/08 11:08:31;;;;;;;5.10;3.67;;;22.90;84.50;;;;;;5116429;28;20757;-51
2022/05/08 11:11:04;;;;;;;7.40;3.97;;;23.00;85.30;;;;;;5097604;28;20826;-50
2022/05/08 11:13:42;;;;;;;5.30;3.50;;;23.40;84.10;;;;;;5095829;28;20524;-51
2022/05/08 11:16:15;;;;;;;9.63;4.10;;;23.70;82.50;;;;;;5113092;28;20438;-52
2022/05/08 11:18:43;;;;;;;9.07;4.10;;;23.80;81.90;;;;;;5087430;28;20452;-51
2022/05/08 11:21:10;;;;;;;3.83;3.40;;;23.40;82.90;;;;;;5084115;28;20436;-51
2022/05/08 11:23:44;;;;;;;4.23;3.90;;;23.20;83.70;;;;;;5104594;28;20419;-50
2022/05/08 11:26:14;;;;;;;7.23;5.80;;;23.30;83.00;;;;;;5114413;28;20515;-50
2022/05/08 11:28:53;;;;;;;5.80;5.10;;;23.50;83.20;;;;;;5097355;28;20776;-49
2022/05/08 11:31:21;;;;;;;4.53;4.10;;;23.70;82.30;;;;;;5093710;28;21362;-50
2022/05/08 11:36:38;;;;;;;5.40;4.90;;;23.50;82.60;;;;;;5075666;28;20434;-51
2022/05/08 11:39:19;;;;;;;4.93;4.53;;;23.70;85.30;;;;;;5092648;28;20801;-49
2022/05/08 11:41:51;;;;;;;4.97;4.50;;;23.20;86.30;;;;;;5089053;28;20455;-52
2022/05/08 11:44:23;;;;;;;6.63;4.10;;;22.80;89.10;;;;;;5093796;28;20435;-53
2022/05/08 11:46:55;;;;;;;4.60;4.20;;;22.90;88.80;;;;;;5091929;28;20601;-51
2022/05/08 11:49:25;;;;;;;5.67;3.77;;;23.00;88.90;;;;;;5089179;28;20461;-50
2022/05/08 11:51:57;;;;;;;4.33;4.03;;;23.10;87.60;;;;;;5092278;28;20801;-50
2022/05/08 11:54:27;;;;;;;4.50;4.20;;;23.40;86.60;;;;;;5099172;28;20551;-50
2022/05/08 11:57:19;;;;;;;3.90;3.60;;;23.20;87.70;;;;;;5097926;28;20464;-50
2022/05/08 11:59:49;;;;;;;13.80;4.27;;;23.30;87.90;;;;;;5093617;28;20409;-51
2022/05/08 12:02:18;;;;;;;4.60;4.20;;;23.50;87.90;;;;;;5094038;28;20448;-51
2022/05/08 12:04:57;;;;;;;7.73;4.60;;;23.80;85.00;;;;;;5101370;28;20438;-51
2022/05/08 12:07:25;;;;;;;3.53;3.30;;;24.20;84.20;;;;;;5113269;28;20445;-50
2022/05/08 12:09:55;;;;;;;3.83;3.43;;;24.60;84.80;;;;;;5100733;28;20448;-51
2022/05/08 12:12:25;;;;;;;4.40;3.80;;;24.80;84.60;;;;;;5104216;28;20772;-50
2022/05/08 12:15:08;;;;;;;3.33;2.80;;;24.20;83.60;;;;;;5084144;28;20501;-50
2022/05/08 12:17:45;;;;;;;6.83;4.20;;;23.80;85.90;;;;;;5093700;28;20434;-50
2022/05/08 12:20:32;;;;;;;4.03;3.63;;;23.70;84.60;;;;;;5092970;28;20438;-50
2022/05/08 12:23:13;;;;;;;3.67;3.20;;;23.50;84.90;;;;;;5093204;28;20426;-50
2022/05/08 12:25:41;;;;;;;3.53;3.23;;;23.40;86.30;;;;;;5094250;28;20417;-51
2022/05/08 12:28:13;;;;;;;6.13;3.30;;;23.30;86.90;;;;;;5093791;28;20462;-53
2022/05/08 12:30:40;;;;;;;4.10;3.70;;;23.10;88.00;;;;;;5093625;28;20813;-50
2022/05/08 12:33:11;;;;;;;3.47;3.17;;;23.00;88.80;;;;;;5095288;28;20764;-51
2022/05/08 12:35:38;;;;;;;4.30;3.00;;;22.90;89.80;;;;;;5095334;28;20445;-50
2022/05/08 12:38:06;;;;;;;3.57;3.27;;;23.10;90.20;;;;;;5092013;28;20435;-50
2022/05/08 12:40:33;;;;;;;5.60;3.60;;;22.70;90.60;;;;;;5079235;28;20491;-49
2022/05/08 12:43:03;;;;;;;3.40;3.00;;;22.80;90.90;;;;;;5075867;28;20423;-50
2022/05/08 12:45:31;;;;;;;4.30;3.90;;;23.20;90.20;;;;;;5097850;28;20434;-51
2022/05/08 12:47:59;;;;;;;4.50;3.27;;;23.40;90.20;;;;;;5082392;28;20478;-50
2022/05/08 12:50:26;;;;;;;3.73;3.37;;;23.60;89.20;;;;;;5083580;28;20653;-50
2022/05/08 12:52:56;;;;;;;4.50;3.50;;;23.80;87.60;;;;;;5094990;28;20777;-50
2022/05/08 12:55:23;;;;;;;3.83;3.17;;;23.70;88.50;;;;;;5097510;28;20474;-50
2022/05/08 13:00:41;;;;;;;4.27;3.20;;;23.80;88.10;;;;;;5117166;28;20529;-50
2022/05/08 13:03:11;;;;;;;3.73;3.43;;;23.60;89.00;;;;;;5099548;28;20440;-51
2022/05/08 13:05:38;;;;;;;4.83;2.80;;;23.60;89.90;;;;;;5092563;28;20825;-52
2022/05/08 13:08:06;;;;;;;3.43;3.20;;;23.20;90.70;;;;;;5096068;28;20449;-49
2022/05/08 13:10:35;;;;;;;3.63;3.33;;;22.80;91.20;;;;;;5087909;28;20438;-54
2022/05/08 13:13:02;;;;;;;4.17;3.80;;;22.40;91.80;;;;;;5097517;28;20443;-50
2022/05/08 13:15:29;;;;;;;5.10;4.10;;;22.20;92.70;;;;;;5094056;28;20829;-50
2022/05/08 13:17:57;;;;;;;2.73;2.60;;;22.00;93.00;;;;;;5101080;28;20638;-52
2022/05/08 13:20:24;;;;;;;4.27;3.57;;;21.80;93.00;;;;;;5091949;28;20827;-51
2022/05/08 13:22:51;;;;;;;4.73;4.33;;;21.70;93.00;;;;;;5095469;28;20447;-51
2022/05/08 13:25:19;;;;;;;3.20;3.00;;;21.70;93.00;;;;;;5108738;28;20808;-55
2022/05/08 13:27:46;;;;;;;3.00;2.33;;;21.50;93.10;;;;;;5116588;28;20437;-50
2022/05/08 13:30:14;;;;;;;3.50;3.07;;;21.60;93.70;;;;;;5117186;28;20639;-49